Wednesday, January 16, 2019, 12:26 AM GMT
Back to Local

CYGK, Kingston, Ont.

Location: , , Canada Lat: 44.217
Local Time: 12:26 AM GMT ( 0:26 GMT) Lon: -76.6
Time Zone: GMT Elev: 305 ft

Show me the last for .
Show Decoded

2019-01-16 00:00 METAR CYGK 160000Z 22010KT 12SM -SN SCT013 OVC025 00/M02 A3000 RMK CU4SC4 SLP164
                 =
2019-01-15 23:21 METAR CYGK 152321Z 24008KT 12SM -SN SCT013 OVC025 00/M01 A3001 RMK SC4SC4 SLP167
                 =
2019-01-15 23:00 METAR CYGK 152300Z 22009G15KT 8SM -SN OVC013 M00/M01 A3001 RMK SC8 SLP167 =
2019-01-15 22:00 METAR CYGK 152200Z 22008KT 7SM -SN OVC015 00/M01 A3001 RMK SC8 SLP169 =
2019-01-15 21:00 METAR CYGK 152100Z 24010G15KT 7SM -SN BKN014 OVC028 00/M01 A3003 RMK SC6SC2
                 SLP175 =
2019-01-15 20:39 METAR CYGK 152039Z 23010G15KT 8SM -SN BKN018 OVC053 00/M01 A3003 RMK SC6SC2
                 SLP175 =
2019-01-15 20:00 METAR CYGK 152000Z 24008KT 10SM VCSH BKN020 OVC035 01/M03 A3003 RMK SC5CU3
                 SLP175 =
2019-01-15 19:00 METAR CYGK 151900Z 14004KT 10SM -SN OVC019 M00/M02 A3004 RMK SC8 SLP177 =
2019-01-15 18:00 METAR CYGK 151800Z 22005KT 8SM -SN BKN010 OVC020 M00/M02 A3005 RMK SC5SC3 SLP181
                 =
2019-01-15 17:22 METAR CYGK 151722Z 21005KT 8SM -SN BKN012 OVC020 M01/M02 A3007 RMK SC5SC3 SLP188
                 =
2019-01-15 17:07 METAR CYGK 151707Z 22005KT 7SM -SN FEW012 OVC023 M01/M02 A3007 RMK SF2SC6 SLP191
                 =
2019-01-15 17:00 METAR CYGK 151700Z 23005KT 7SM FEW012 OVC023 M01/M02 A3008 RMK SF2SC6 SLP193 =
2019-01-15 16:00 METAR CYGK 151600Z 25004KT 8SM OVC020 M01/M03 A3011 RMK SC8 SLP202 =
2019-01-15 15:47 METAR CYGK 151547Z 28005KT 7SM OVC019 M01/M03 A3011 RMK SC8 SLP204 =
2019-01-15 15:00 METAR CYGK 151500Z 27004KT 6SM -SN OVC020 M02/M03 A3012 RMK SC8 SLP206 =
2019-01-15 14:31 METAR CYGK 151431Z 27004KT 1 1/2SM -SN FEW010 OVC018 M02/M03 A3012 RMK SF1SC7
                 SLP207 =
2019-01-15 14:20 METAR CYGK 151420Z 27005KT 6SM -SG OVC015 M03/M03 A3012 RMK ST8 SLP207 =
2019-01-15 14:00 METAR CYGK 151400Z 30004KT 6SM -FZDZ -SN BKN015 OVC040 M03/M03 A3012 RMK SC7SC1
                 SLP205 =
2019-01-15 13:30 METAR CYGK 151330Z 28005KT 8SM -FZDZ BKN022 OVC038 M03/M04 A3011 RMK SC6SC2
                 SLP204 =
2019-01-15 13:00 METAR CYGK 151300Z 28004KT 8SM -SG BKN018 OVC029 M03/M05 A3011 RMK SC5SC3 SLP202
                 =
2019-01-15 12:00 METAR CYGK 151200Z 29003KT 15SM BKN018 OVC042 M03/M06 A3011 RMK SC6SC2 SLP204 =
2019-01-15 11:00 METAR CYGK 151100Z 25003KT 15SM OVC025 M03/M06 A3011 RMK SC8 SLP204 =
2019-01-15 04:00 METAR CYGK 150400Z 20007KT 15SM OVC029 M04/M07 A3017 RMK SC8 LAST STFD OBS/NEXT
                 151100 UTC SLP224 =
2019-01-15 03:00 METAR CYGK 150300Z 24002KT 15SM OVC025 M05/M08 A3019 RMK SC8 SLP232 =
2019-01-15 02:00 METAR CYGK 150200Z 26004KT 15SM OVC025 M05/M09 A3019 RMK SC8 SLP231 =
2019-01-15 01:00 METAR CYGK 150100Z 28004KT 15SM SCT150 M07/M10 A3020 RMK AC4 SLP235 =

Support USWX by starting your Amazon purchase here.